sensor_id;sensor_type;location;lat;lon;timestamp;P1;durP1;ratioP1;P2;durP2;ratioP2
61960;SDS011;47923;42.506;24.192;2024-02-28T00:00:10;28.80;;;20.05;;
61960;SDS011;47923;42.506;24.192;2024-02-28T00:02:36;32.75;;;21.30;;
61960;SDS011;47923;42.506;24.192;2024-02-28T00:05:03;30.17;;;19.38;;
61960;SDS011;47923;42.506;24.192;2024-02-28T00:07:28;29.65;;;18.35;;
61960;SDS011;47923;42.506;24.192;2024-02-28T00:09:55;25.58;;;17.88;;
61960;SDS011;47923;42.506;24.192;2024-02-28T00:12:23;25.80;;;17.50;;
61960;SDS011;47923;42.506;24.192;2024-02-28T00:14:50;22.48;;;17.45;;
61960;SDS011;47923;42.506;24.192;2024-02-28T00:17:16;24.13;;;16.30;;
61960;SDS011;47923;42.506;24.192;2024-02-28T00:19:41;22.05;;;14.88;;
61960;SDS011;47923;42.506;24.192;2024-02-28T00:22:08;26.83;;;16.80;;
61960;SDS011;47923;42.506;24.192;2024-02-28T00:24:34;23.17;;;14.93;;
61960;SDS011;47923;42.506;24.192;2024-02-28T00:27:00;18.70;;;13.07;;
61960;SDS011;47923;42.506;24.192;2024-02-28T00:29:25;20.15;;;14.10;;
61960;SDS011;47923;42.506;24.192;2024-02-28T00:31:51;22.95;;;15.77;;
61960;SDS011;47923;42.506;24.192;2024-02-28T00:34:17;24.90;;;16.70;;
61960;SDS011;47923;42.506;24.192;2024-02-28T00:36:42;28.75;;;19.30;;
61960;SDS011;47923;42.506;24.192;2024-02-28T00:39:08;27.52;;;18.85;;
61960;SDS011;47923;42.506;24.192;2024-02-28T00:41:35;31.13;;;22.40;;
61960;SDS011;47923;42.506;24.192;2024-02-28T00:44:01;31.42;;;21.08;;
61960;SDS011;47923;42.506;24.192;2024-02-28T00:46:27;28.92;;;20.17;;
61960;SDS011;47923;42.506;24.192;2024-02-28T00:48:53;32.03;;;23.85;;
61960;SDS011;47923;42.506;24.192;2024-02-28T00:51:18;31.13;;;21.75;;
61960;SDS011;47923;42.506;24.192;2024-02-28T00:53:43;29.55;;;19.75;;
61960;SDS011;47923;42.506;24.192;2024-02-28T00:56:09;25.73;;;17.98;;
61960;SDS011;47923;42.506;24.192;2024-02-28T00:58:34;25.65;;;19.00;;
61960;SDS011;47923;42.506;24.192;2024-02-28T01:01:00;27.55;;;17.77;;
61960;SDS011;47923;42.506;24.192;2024-02-28T01:03:25;22.17;;;16.60;;
61960;SDS011;47923;42.506;24.192;2024-02-28T01:05:51;23.10;;;15.35;;
61960;SDS011;47923;42.506;24.192;2024-02-28T01:08:17;23.50;;;15.30;;
61960;SDS011;47923;42.506;24.192;2024-02-28T01:10:43;25.17;;;15.20;;
61960;SDS011;47923;42.506;24.192;2024-02-28T01:13:10;23.95;;;15.52;;
61960;SDS011;47923;42.506;24.192;2024-02-28T01:15:35;25.75;;;17.50;;
61960;SDS011;47923;42.506;24.192;2024-02-28T01:18:01;30.38;;;21.40;;
61960;SDS011;47923;42.506;24.192;2024-02-28T01:20:26;29.67;;;18.63;;
61960;SDS011;47923;42.506;24.192;2024-02-28T01:22:52;27.95;;;18.73;;
61960;SDS011;47923;42.506;24.192;2024-02-28T01:25:17;30.30;;;20.08;;
61960;SDS011;47923;42.506;24.192;2024-02-28T01:27:43;30.33;;;20.73;;
61960;SDS011;47923;42.506;24.192;2024-02-28T01:30:09;29.05;;;19.17;;
61960;SDS011;47923;42.506;24.192;2024-02-28T01:32:35;35.47;;;22.58;;
61960;SDS011;47923;42.506;24.192;2024-02-28T01:35:01;28.17;;;20.27;;
61960;SDS011;47923;42.506;24.192;2024-02-28T01:37:28;28.42;;;19.83;;
61960;SDS011;47923;42.506;24.192;2024-02-28T01:39:53;26.85;;;19.25;;
61960;SDS011;47923;42.506;24.192;2024-02-28T01:42:19;24.98;;;17.02;;
61960;SDS011;47923;42.506;24.192;2024-02-28T01:44:45;29.95;;;19.42;;
61960;SDS011;47923;42.506;24.192;2024-02-28T01:47:13;25.75;;;17.95;;
61960;SDS011;47923;42.506;24.192;2024-02-28T01:49:40;27.63;;;18.65;;
61960;SDS011;47923;42.506;24.192;2024-02-28T01:52:07;26.33;;;18.40;;
61960;SDS011;47923;42.506;24.192;2024-02-28T01:54:34;28.10;;;19.33;;
61960;SDS011;47923;42.506;24.192;2024-02-28T01:57:00;29.50;;;20.02;;
61960;SDS011;47923;42.506;24.192;2024-02-28T01:59:26;30.20;;;19.10;;
61960;SDS011;47923;42.506;24.192;2024-02-28T02:01:54;24.10;;;18.40;;
61960;SDS011;47923;42.506;24.192;2024-02-28T02:04:20;26.55;;;17.45;;
61960;SDS011;47923;42.506;24.192;2024-02-28T02:06:46;24.10;;;17.13;;
61960;SDS011;47923;42.506;24.192;2024-02-28T02:09:13;28.50;;;18.23;;
61960;SDS011;47923;42.506;24.192;2024-02-28T02:11:38;28.38;;;18.02;;
61960;SDS011;47923;42.506;24.192;2024-02-28T02:14:04;31.00;;;19.48;;
61960;SDS011;47923;42.506;24.192;2024-02-28T02:16:30;30.75;;;21.15;;
61960;SDS011;47923;42.506;24.192;2024-02-28T02:18:55;30.15;;;19.02;;
61960;SDS011;47923;42.506;24.192;2024-02-28T02:21:26;28.80;;;18.30;;
61960;SDS011;47923;42.506;24.192;2024-02-28T02:23:56;25.52;;;17.98;;
61960;SDS011;47923;42.506;24.192;2024-02-28T02:26:21;27.05;;;18.60;;
61960;SDS011;47923;42.506;24.192;2024-02-28T02:28:47;35.28;;;24.70;;
61960;SDS011;47923;42.506;24.192;2024-02-28T02:31:13;29.10;;;22.00;;
61960;SDS011;47923;42.506;24.192;2024-02-28T02:33:39;26.50;;;19.75;;
61960;SDS011;47923;42.506;24.192;2024-02-28T02:36:04;29.00;;;20.00;;
61960;SDS011;47923;42.506;24.192;2024-02-28T02:38:30;26.55;;;18.75;;
61960;SDS011;47923;42.506;24.192;2024-02-28T02:40:55;27.35;;;18.63;;
61960;SDS011;47923;42.506;24.192;2024-02-28T02:43:21;25.70;;;17.80;;
61960;SDS011;47923;42.506;24.192;2024-02-28T02:45:46;29.85;;;20.40;;
61960;SDS011;47923;42.506;24.192;2024-02-28T02:48:12;28.60;;;18.08;;
61960;SDS011;47923;42.506;24.192;2024-02-28T02:50:37;29.70;;;18.45;;
61960;SDS011;47923;42.506;24.192;2024-02-28T02:53:03;25.77;;;17.30;;
61960;SDS011;47923;42.506;24.192;2024-02-28T02:55:29;27.00;;;17.52;;
61960;SDS011;47923;42.506;24.192;2024-02-28T02:57:55;24.85;;;17.30;;
61960;SDS011;47923;42.506;24.192;2024-02-28T03:00:21;24.42;;;16.95;;
61960;SDS011;47923;42.506;24.192;2024-02-28T03:02:47;30.38;;;19.77;;
61960;SDS011;47923;42.506;24.192;2024-02-28T03:05:13;27.35;;;17.88;;
61960;SDS011;47923;42.506;24.192;2024-02-28T03:07:38;28.00;;;16.65;;
61960;SDS011;47923;42.506;24.192;2024-02-28T03:10:04;25.23;;;17.20;;
61960;SDS011;47923;42.506;24.192;2024-02-28T03:12:32;26.52;;;18.13;;
61960;SDS011;47923;42.506;24.192;2024-02-28T03:14:58;28.38;;;17.67;;
61960;SDS011;47923;42.506;24.192;2024-02-28T03:17:23;24.92;;;17.88;;
61960;SDS011;47923;42.506;24.192;2024-02-28T03:19:49;23.40;;;15.70;;
61960;SDS011;47923;42.506;24.192;2024-02-28T03:22:14;26.30;;;16.70;;
61960;SDS011;47923;42.506;24.192;2024-02-28T03:24:40;24.65;;;18.00;;
61960;SDS011;47923;42.506;24.192;2024-02-28T03:27:06;33.70;;;19.48;;
61960;SDS011;47923;42.506;24.192;2024-02-28T03:29:31;23.38;;;17.42;;
61960;SDS011;47923;42.506;24.192;2024-02-28T03:31:57;27.30;;;18.55;;
61960;SDS011;47923;42.506;24.192;2024-02-28T03:34:23;26.55;;;17.63;;
61960;SDS011;47923;42.506;24.192;2024-02-28T03:36:48;30.95;;;19.58;;
61960;SDS011;47923;42.506;24.192;2024-02-28T03:39:14;26.33;;;16.85;;
61960;SDS011;47923;42.506;24.192;2024-02-28T03:41:39;27.08;;;16.73;;
61960;SDS011;47923;42.506;24.192;2024-02-28T03:44:05;22.70;;;16.90;;
61960;SDS011;47923;42.506;24.192;2024-02-28T03:46:30;25.50;;;17.27;;
61960;SDS011;47923;42.506;24.192;2024-02-28T03:48:56;27.50;;;20.67;;
61960;SDS011;47923;42.506;24.192;2024-02-28T03:51:22;23.45;;;16.52;;
61960;SDS011;47923;42.506;24.192;2024-02-28T03:53:47;28.75;;;19.20;;
61960;SDS011;47923;42.506;24.192;2024-02-28T03:56:13;27.10;;;18.55;;
61960;SDS011;47923;42.506;24.192;2024-02-28T03:58:46;27.03;;;19.57;;
61960;SDS011;47923;42.506;24.192;2024-02-28T04:01:11;29.45;;;21.05;;
61960;SDS011;47923;42.506;24.192;2024-02-28T04:03:37;28.70;;;20.70;;
61960;SDS011;47923;42.506;24.192;2024-02-28T04:06:02;26.13;;;19.15;;
61960;SDS011;47923;42.506;24.192;2024-02-28T04:08:28;27.35;;;18.58;;
61960;SDS011;47923;42.506;24.192;2024-02-28T04:10:53;28.00;;;21.25;;
61960;SDS011;47923;42.506;24.192;2024-02-28T04:13:19;31.77;;;23.40;;
61960;SDS011;47923;42.506;24.192;2024-02-28T04:15:44;33.30;;;24.75;;
61960;SDS011;47923;42.506;24.192;2024-02-28T04:18:11;30.98;;;21.63;;
61960;SDS011;47923;42.506;24.192;2024-02-28T04:20:36;31.42;;;23.52;;
61960;SDS011;47923;42.506;24.192;2024-02-28T04:23:03;28.33;;;22.10;;
61960;SDS011;47923;42.506;24.192;2024-02-28T04:25:29;28.05;;;21.65;;
61960;SDS011;47923;42.506;24.192;2024-02-28T04:27:54;30.10;;;22.15;;
61960;SDS011;47923;42.506;24.192;2024-02-28T04:30:20;29.45;;;21.48;;
61960;SDS011;47923;42.506;24.192;2024-02-28T04:32:45;32.67;;;23.60;;
61960;SDS011;47923;42.506;24.192;2024-02-28T04:35:12;32.28;;;21.55;;
61960;SDS011;47923;42.506;24.192;2024-02-28T04:37:40;30.40;;;21.38;;
61960;SDS011;47923;42.506;24.192;2024-02-28T04:40:06;31.48;;;21.60;;
61960;SDS011;47923;42.506;24.192;2024-02-28T04:42:32;28.05;;;20.13;;
61960;SDS011;47923;42.506;24.192;2024-02-28T04:44:58;27.13;;;18.10;;
61960;SDS011;47923;42.506;24.192;2024-02-28T04:47:23;29.70;;;19.65;;
61960;SDS011;47923;42.506;24.192;2024-02-28T04:49:49;27.83;;;19.02;;
61960;SDS011;47923;42.506;24.192;2024-02-28T04:52:14;25.83;;;17.67;;
61960;SDS011;47923;42.506;24.192;2024-02-28T04:54:40;24.35;;;15.93;;
61960;SDS011;47923;42.506;24.192;2024-02-28T04:57:05;25.70;;;17.08;;
61960;SDS011;47923;42.506;24.192;2024-02-28T04:59:31;25.17;;;17.85;;
61960;SDS011;47923;42.506;24.192;2024-02-28T05:01:57;31.40;;;22.92;;
61960;SDS011;47923;42.506;24.192;2024-02-28T05:04:24;37.50;;;27.38;;
61960;SDS011;47923;42.506;24.192;2024-02-28T05:06:49;40.05;;;31.13;;
61960;SDS011;47923;42.506;24.192;2024-02-28T05:09:14;40.40;;;30.23;;
61960;SDS011;47923;42.506;24.192;2024-02-28T05:11:40;45.95;;;30.52;;
61960;SDS011;47923;42.506;24.192;2024-02-28T05:14:06;52.47;;;30.45;;
61960;SDS011;47923;42.506;24.192;2024-02-28T05:16:31;42.88;;;28.08;;
61960;SDS011;47923;42.506;24.192;2024-02-28T05:18:57;37.28;;;26.38;;
61960;SDS011;47923;42.506;24.192;2024-02-28T05:21:22;32.67;;;22.80;;
61960;SDS011;47923;42.506;24.192;2024-02-28T05:23:48;28.20;;;19.80;;
61960;SDS011;47923;42.506;24.192;2024-02-28T05:26:13;27.10;;;18.08;;
61960;SDS011;47923;42.506;24.192;2024-02-28T05:28:39;26.35;;;16.90;;
61960;SDS011;47923;42.506;24.192;2024-02-28T05:31:18;27.65;;;15.60;;
61960;SDS011;47923;42.506;24.192;2024-02-28T05:33:45;28.50;;;18.75;;
61960;SDS011;47923;42.506;24.192;2024-02-28T05:36:10;25.83;;;16.63;;
61960;SDS011;47923;42.506;24.192;2024-02-28T05:38:36;32.33;;;22.80;;
61960;SDS011;47923;42.506;24.192;2024-02-28T05:41:03;38.15;;;25.33;;
61960;SDS011;47923;42.506;24.192;2024-02-28T05:43:28;34.72;;;25.88;;
61960;SDS011;47923;42.506;24.192;2024-02-28T05:45:55;42.65;;;25.90;;
61960;SDS011;47923;42.506;24.192;2024-02-28T05:48:21;29.67;;;20.55;;
61960;SDS011;47923;42.506;24.192;2024-02-28T05:50:46;31.83;;;19.35;;
61960;SDS011;47923;42.506;24.192;2024-02-28T05:53:12;28.35;;;17.40;;
61960;SDS011;47923;42.506;24.192;2024-02-28T05:55:37;29.80;;;17.98;;
61960;SDS011;47923;42.506;24.192;2024-02-28T05:58:02;28.50;;;18.35;;
61960;SDS011;47923;42.506;24.192;2024-02-28T06:00:28;35.70;;;21.88;;
61960;SDS011;47923;42.506;24.192;2024-02-28T06:02:54;30.42;;;21.23;;
61960;SDS011;47923;42.506;24.192;2024-02-28T06:05:19;39.75;;;27.02;;
61960;SDS011;47923;42.506;24.192;2024-02-28T06:07:45;39.97;;;26.33;;
61960;SDS011;47923;42.506;24.192;2024-02-28T06:10:10;36.75;;;22.35;;
61960;SDS011;47923;42.506;24.192;2024-02-28T06:12:36;30.50;;;20.27;;
61960;SDS011;47923;42.506;24.192;2024-02-28T06:15:02;33.28;;;22.00;;
61960;SDS011;47923;42.506;24.192;2024-02-28T06:17:29;44.50;;;28.48;;
61960;SDS011;47923;42.506;24.192;2024-02-28T06:19:54;48.78;;;29.50;;
61960;SDS011;47923;42.506;24.192;2024-02-28T06:22:20;43.55;;;29.88;;
61960;SDS011;47923;42.506;24.192;2024-02-28T06:24:45;41.63;;;27.98;;
61960;SDS011;47923;42.506;24.192;2024-02-28T06:27:11;43.42;;;28.10;;
61960;SDS011;47923;42.506;24.192;2024-02-28T06:29:38;47.42;;;31.67;;
61960;SDS011;47923;42.506;24.192;2024-02-28T06:32:05;50.78;;;33.72;;
61960;SDS011;47923;42.506;24.192;2024-02-28T06:34:31;51.15;;;34.00;;
61960;SDS011;47923;42.506;24.192;2024-02-28T06:36:56;53.83;;;36.38;;
61960;SDS011;47923;42.506;24.192;2024-02-28T06:39:22;49.92;;;33.47;;
61960;SDS011;47923;42.506;24.192;2024-02-28T06:41:48;48.13;;;34.97;;
61960;SDS011;47923;42.506;24.192;2024-02-28T06:44:16;50.58;;;39.25;;
61960;SDS011;47923;42.506;24.192;2024-02-28T06:46:43;77.90;;;55.70;;
61960;SDS011;47923;42.506;24.192;2024-02-28T06:49:09;74.28;;;51.20;;
61960;SDS011;47923;42.506;24.192;2024-02-28T06:51:34;61.53;;;44.45;;
61960;SDS011;47923;42.506;24.192;2024-02-28T06:54:00;61.08;;;38.05;;
61960;SDS011;47923;42.506;24.192;2024-02-28T06:56:25;58.88;;;38.28;;
61960;SDS011;47923;42.506;24.192;2024-02-28T06:58:51;53.85;;;36.03;;
61960;SDS011;47923;42.506;24.192;2024-02-28T07:01:17;46.60;;;32.88;;
61960;SDS011;47923;42.506;24.192;2024-02-28T07:03:43;44.38;;;31.52;;
61960;SDS011;47923;42.506;24.192;2024-02-28T07:06:09;52.03;;;35.25;;
61960;SDS011;47923;42.506;24.192;2024-02-28T07:08:34;54.80;;;35.53;;
61960;SDS011;47923;42.506;24.192;2024-02-28T07:11:01;52.65;;;37.35;;
61960;SDS011;47923;42.506;24.192;2024-02-28T07:13:27;50.13;;;34.55;;
61960;SDS011;47923;42.506;24.192;2024-02-28T07:15:53;41.38;;;30.92;;
61960;SDS011;47923;42.506;24.192;2024-02-28T07:18:23;43.55;;;29.38;;
61960;SDS011;47923;42.506;24.192;2024-02-28T07:20:50;30.67;;;22.58;;
61960;SDS011;47923;42.506;24.192;2024-02-28T07:23:17;34.38;;;24.38;;
61960;SDS011;47923;42.506;24.192;2024-02-28T07:25:42;34.00;;;25.63;;
61960;SDS011;47923;42.506;24.192;2024-02-28T07:28:08;39.30;;;26.52;;
61960;SDS011;47923;42.506;24.192;2024-02-28T07:30:33;37.10;;;27.02;;
61960;SDS011;47923;42.506;24.192;2024-02-28T07:32:59;36.17;;;28.15;;
61960;SDS011;47923;42.506;24.192;2024-02-28T07:35:24;28.92;;;23.45;;
61960;SDS011;47923;42.506;24.192;2024-02-28T07:37:50;29.30;;;22.50;;
61960;SDS011;47923;42.506;24.192;2024-02-28T07:40:15;26.67;;;21.60;;
61960;SDS011;47923;42.506;24.192;2024-02-28T07:42:41;27.00;;;23.23;;
61960;SDS011;47923;42.506;24.192;2024-02-28T07:45:06;24.33;;;17.85;;
61960;SDS011;47923;42.506;24.192;2024-02-28T07:47:33;19.45;;;15.50;;
61960;SDS011;47923;42.506;24.192;2024-02-28T07:49:59;23.95;;;16.13;;
61960;SDS011;47923;42.506;24.192;2024-02-28T07:52:26;22.80;;;17.42;;
61960;SDS011;47923;42.506;24.192;2024-02-28T07:54:51;22.38;;;17.67;;
61960;SDS011;47923;42.506;24.192;2024-02-28T07:57:17;26.55;;;21.17;;
61960;SDS011;47923;42.506;24.192;2024-02-28T07:59:42;26.65;;;19.38;;
61960;SDS011;47923;42.506;24.192;2024-02-28T08:02:08;23.02;;;18.65;;
61960;SDS011;47923;42.506;24.192;2024-02-28T08:04:36;23.77;;;17.75;;
61960;SDS011;47923;42.506;24.192;2024-02-28T08:07:02;23.95;;;18.02;;
61960;SDS011;47923;42.506;24.192;2024-02-28T08:09:28;23.58;;;16.83;;
61960;SDS011;47923;42.506;24.192;2024-02-28T08:11:54;24.05;;;18.85;;
61960;SDS011;47923;42.506;24.192;2024-02-28T08:14:19;20.77;;;14.90;;
61960;SDS011;47923;42.506;24.192;2024-02-28T08:16:45;22.98;;;14.93;;
61960;SDS011;47923;42.506;24.192;2024-02-28T08:19:10;20.65;;;14.85;;
61960;SDS011;47923;42.506;24.192;2024-02-28T08:21:35;18.77;;;12.10;;
61960;SDS011;47923;42.506;24.192;2024-02-28T08:24:01;19.35;;;11.82;;
61960;SDS011;47923;42.506;24.192;2024-02-28T08:26:33;17.38;;;11.68;;
61960;SDS011;47923;42.506;24.192;2024-02-28T08:28:58;20.55;;;13.60;;
61960;SDS011;47923;42.506;24.192;2024-02-28T08:31:24;16.38;;;11.38;;
61960;SDS011;47923;42.506;24.192;2024-02-28T08:33:49;25.17;;;12.70;;
61960;SDS011;47923;42.506;24.192;2024-02-28T08:36:14;16.80;;;10.35;;
61960;SDS011;47923;42.506;24.192;2024-02-28T08:38:40;16.08;;;9.90;;
61960;SDS011;47923;42.506;24.192;2024-02-28T08:41:06;23.10;;;10.65;;
61960;SDS011;47923;42.506;24.192;2024-02-28T08:43:32;17.88;;;10.65;;
61960;SDS011;47923;42.506;24.192;2024-02-28T08:45:58;18.30;;;12.02;;
61960;SDS011;47923;42.506;24.192;2024-02-28T08:48:24;16.95;;;12.95;;
61960;SDS011;47923;42.506;24.192;2024-02-28T08:50:49;17.27;;;11.20;;
61960;SDS011;47923;42.506;24.192;2024-02-28T08:53:15;14.85;;;9.63;;
61960;SDS011;47923;42.506;24.192;2024-02-28T08:55:40;33.90;;;30.40;;
61960;SDS011;47923;42.506;24.192;2024-02-28T08:58:07;18.35;;;11.20;;
61960;SDS011;47923;42.506;24.192;2024-02-28T09:00:32;18.15;;;12.32;;
61960;SDS011;47923;42.506;24.192;2024-02-28T09:02:58;17.88;;;11.60;;
61960;SDS011;47923;42.506;24.192;2024-02-28T09:05:23;14.95;;;8.93;;
61960;SDS011;47923;42.506;24.192;2024-02-28T09:07:49;15.10;;;9.20;;
61960;SDS011;47923;42.506;24.192;2024-02-28T09:10:16;14.40;;;9.13;;
61960;SDS011;47923;42.506;24.192;2024-02-28T09:12:46;15.35;;;9.30;;
61960;SDS011;47923;42.506;24.192;2024-02-28T09:15:12;14.40;;;8.65;;
61960;SDS011;47923;42.506;24.192;2024-02-28T09:17:38;21.08;;;11.70;;
61960;SDS011;47923;42.506;24.192;2024-02-28T09:20:03;16.80;;;9.48;;
61960;SDS011;47923;42.506;24.192;2024-02-28T09:22:31;12.70;;;8.05;;
61960;SDS011;47923;42.506;24.192;2024-02-28T09:24:57;19.05;;;8.23;;
61960;SDS011;47923;42.506;24.192;2024-02-28T09:27:22;13.90;;;8.00;;
61960;SDS011;47923;42.506;24.192;2024-02-28T09:29:49;14.82;;;8.15;;
61960;SDS011;47923;42.506;24.192;2024-02-28T09:32:15;13.20;;;7.82;;
61960;SDS011;47923;42.506;24.192;2024-02-28T09:34:40;61.08;;;54.47;;
61960;SDS011;47923;42.506;24.192;2024-02-28T09:37:05;14.23;;;7.82;;
61960;SDS011;47923;42.506;24.192;2024-02-28T09:39:31;15.40;;;9.65;;
61960;SDS011;47923;42.506;24.192;2024-02-28T09:41:56;14.63;;;7.10;;
61960;SDS011;47923;42.506;24.192;2024-02-28T09:44:22;11.77;;;7.13;;
61960;SDS011;47923;42.506;24.192;2024-02-28T09:46:51;14.48;;;6.57;;
61960;SDS011;47923;42.506;24.192;2024-02-28T09:49:18;11.02;;;6.45;;
61960;SDS011;47923;42.506;24.192;2024-02-28T09:51:44;12.20;;;7.25;;
61960;SDS011;47923;42.506;24.192;2024-02-28T09:54:12;13.48;;;7.07;;
61960;SDS011;47923;42.506;24.192;2024-02-28T09:56:37;14.10;;;7.55;;
61960;SDS011;47923;42.506;24.192;2024-02-28T09:59:03;14.43;;;7.50;;
61960;SDS011;47923;42.506;24.192;2024-02-28T10:01:29;11.07;;;6.30;;
61960;SDS011;47923;42.506;24.192;2024-02-28T10:03:54;11.70;;;6.95;;
61960;SDS011;47923;42.506;24.192;2024-02-28T10:06:21;11.77;;;6.78;;
61960;SDS011;47923;42.506;24.192;2024-02-28T10:08:47;11.98;;;7.18;;
61960;SDS011;47923;42.506;24.192;2024-02-28T10:11:19;11.95;;;6.70;;
61960;SDS011;47923;42.506;24.192;2024-02-28T10:13:47;11.93;;;6.53;;
61960;SDS011;47923;42.506;24.192;2024-02-28T10:16:13;11.57;;;6.30;;
61960;SDS011;47923;42.506;24.192;2024-02-28T10:18:40;14.93;;;6.68;;
61960;SDS011;47923;42.506;24.192;2024-02-28T10:21:07;13.95;;;6.97;;
61960;SDS011;47923;42.506;24.192;2024-02-28T10:23:33;28.73;;;8.20;;
61960;SDS011;47923;42.506;24.192;2024-02-28T10:26:00;11.65;;;6.68;;
61960;SDS011;47923;42.506;24.192;2024-02-28T10:28:26;14.10;;;7.03;;
61960;SDS011;47923;42.506;24.192;2024-02-28T10:30:52;13.10;;;6.68;;
61960;SDS011;47923;42.506;24.192;2024-02-28T10:33:19;12.90;;;6.30;;
61960;SDS011;47923;42.506;24.192;2024-02-28T10:35:44;12.63;;;6.53;;
61960;SDS011;47923;42.506;24.192;2024-02-28T10:38:13;13.10;;;7.40;;
61960;SDS011;47923;42.506;24.192;2024-02-28T10:40:40;14.75;;;6.97;;
61960;SDS011;47923;42.506;24.192;2024-02-28T10:43:09;12.93;;;6.78;;
61960;SDS011;47923;42.506;24.192;2024-02-28T10:45:36;12.48;;;6.90;;
61960;SDS011;47923;42.506;24.192;2024-02-28T10:48:05;11.50;;;5.28;;
61960;SDS011;47923;42.506;24.192;2024-02-28T10:50:31;13.50;;;7.88;;
61960;SDS011;47923;42.506;24.192;2024-02-28T10:53:01;12.82;;;6.65;;
61960;SDS011;47923;42.506;24.192;2024-02-28T10:55:34;12.07;;;6.35;;
61960;SDS011;47923;42.506;24.192;2024-02-28T10:58:08;12.65;;;5.63;;
61960;SDS011;47923;42.506;24.192;2024-02-28T11:00:41;16.25;;;6.53;;
61960;SDS011;47923;42.506;24.192;2024-02-28T11:03:12;12.15;;;6.28;;
61960;SDS011;47923;42.506;24.192;2024-02-28T11:05:41;18.25;;;8.00;;
61960;SDS011;47923;42.506;24.192;2024-02-28T11:08:11;15.13;;;8.00;;
61960;SDS011;47923;42.506;24.192;2024-02-28T11:10:45;16.02;;;6.95;;
61960;SDS011;47923;42.506;24.192;2024-02-28T11:13:22;12.63;;;6.50;;
61960;SDS011;47923;42.506;24.192;2024-02-28T11:15:48;14.80;;;8.30;;
61960;SDS011;47923;42.506;24.192;2024-02-28T11:18:14;14.63;;;7.53;;
61960;SDS011;47923;42.506;24.192;2024-02-28T11:20:39;14.02;;;8.30;;
61960;SDS011;47923;42.506;24.192;2024-02-28T11:23:07;22.40;;;8.30;;
61960;SDS011;47923;42.506;24.192;2024-02-28T11:25:34;16.50;;;8.40;;
61960;SDS011;47923;42.506;24.192;2024-02-28T11:28:00;13.77;;;7.55;;
61960;SDS011;47923;42.506;24.192;2024-02-28T11:30:25;15.13;;;9.15;;
61960;SDS011;47923;42.506;24.192;2024-02-28T11:32:54;14.90;;;7.55;;
61960;SDS011;47923;42.506;24.192;2024-02-28T11:35:20;15.45;;;8.07;;
61960;SDS011;47923;42.506;24.192;2024-02-28T11:37:46;17.80;;;8.43;;
61960;SDS011;47923;42.506;24.192;2024-02-28T11:40:12;14.32;;;7.72;;
61960;SDS011;47923;42.506;24.192;2024-02-28T11:42:38;13.77;;;7.72;;
61960;SDS011;47923;42.506;24.192;2024-02-28T11:45:04;14.50;;;7.95;;
61960;SDS011;47923;42.506;24.192;2024-02-28T11:47:34;15.63;;;7.80;;
61960;SDS011;47923;42.506;24.192;2024-02-28T11:50:03;16.67;;;7.60;;
61960;SDS011;47923;42.506;24.192;2024-02-28T11:52:33;18.35;;;7.90;;
61960;SDS011;47923;42.506;24.192;2024-02-28T11:54:59;16.67;;;8.55;;
61960;SDS011;47923;42.506;24.192;2024-02-28T11:57:25;12.90;;;7.63;;
61960;SDS011;47923;42.506;24.192;2024-02-28T11:59:51;16.33;;;8.25;;
61960;SDS011;47923;42.506;24.192;2024-02-28T12:02:17;16.73;;;8.57;;
61960;SDS011;47923;42.506;24.192;2024-02-28T12:04:43;17.90;;;6.28;;
61960;SDS011;47923;42.506;24.192;2024-02-28T12:07:10;13.57;;;7.18;;
61960;SDS011;47923;42.506;24.192;2024-02-28T12:09:36;13.45;;;6.00;;
61960;SDS011;47923;42.506;24.192;2024-02-28T12:12:02;13.45;;;6.72;;
61960;SDS011;47923;42.506;24.192;2024-02-28T12:14:32;15.95;;;7.25;;
61960;SDS011;47923;42.506;24.192;2024-02-28T12:17:01;12.65;;;6.47;;
61960;SDS011;47923;42.506;24.192;2024-02-28T12:19:28;13.13;;;6.43;;
61960;SDS011;47923;42.506;24.192;2024-02-28T12:21:53;15.73;;;5.65;;
61960;SDS011;47923;42.506;24.192;2024-02-28T12:24:19;15.50;;;7.15;;
61960;SDS011;47923;42.506;24.192;2024-02-28T12:26:45;14.48;;;8.80;;
61960;SDS011;47923;42.506;24.192;2024-02-28T12:29:11;16.40;;;7.63;;
61960;SDS011;47923;42.506;24.192;2024-02-28T12:31:37;14.02;;;7.97;;
61960;SDS011;47923;42.506;24.192;2024-02-28T12:34:02;16.77;;;9.02;;
61960;SDS011;47923;42.506;24.192;2024-02-28T12:36:31;14.77;;;7.43;;
61960;SDS011;47923;42.506;24.192;2024-02-28T12:38:57;15.18;;;7.75;;
61960;SDS011;47923;42.506;24.192;2024-02-28T12:41:24;15.52;;;7.78;;
61960;SDS011;47923;42.506;24.192;2024-02-28T12:43:50;17.58;;;9.35;;
61960;SDS011;47923;42.506;24.192;2024-02-28T12:46:17;17.27;;;8.55;;
61960;SDS011;47923;42.506;24.192;2024-02-28T12:48:43;12.18;;;6.70;;
61960;SDS011;47923;42.506;24.192;2024-02-28T12:51:11;23.83;;;12.93;;
61960;SDS011;47923;42.506;24.192;2024-02-28T12:53:45;13.88;;;7.35;;
61960;SDS011;47923;42.506;24.192;2024-02-28T12:56:12;15.02;;;7.75;;
61960;SDS011;47923;42.506;24.192;2024-02-28T12:58:38;15.05;;;7.80;;
61960;SDS011;47923;42.506;24.192;2024-02-28T13:01:03;15.50;;;7.57;;
61960;SDS011;47923;42.506;24.192;2024-02-28T13:03:30;14.98;;;6.22;;
61960;SDS011;47923;42.506;24.192;2024-02-28T13:05:56;15.90;;;7.57;;
61960;SDS011;47923;42.506;24.192;2024-02-28T13:08:21;15.65;;;7.72;;
61960;SDS011;47923;42.506;24.192;2024-02-28T13:10:46;11.68;;;6.63;;
61960;SDS011;47923;42.506;24.192;2024-02-28T13:13:12;15.75;;;6.82;;
61960;SDS011;47923;42.506;24.192;2024-02-28T13:15:38;12.07;;;6.05;;
61960;SDS011;47923;42.506;24.192;2024-02-28T13:18:05;14.52;;;6.80;;
61960;SDS011;47923;42.506;24.192;2024-02-28T13:20:35;11.27;;;5.85;;
61960;SDS011;47923;42.506;24.192;2024-02-28T13:23:01;14.93;;;6.93;;
61960;SDS011;47923;42.506;24.192;2024-02-28T13:25:26;19.15;;;7.70;;
61960;SDS011;47923;42.506;24.192;2024-02-28T13:27:51;15.73;;;7.10;;
61960;SDS011;47923;42.506;24.192;2024-02-28T13:30:17;14.18;;;6.82;;
61960;SDS011;47923;42.506;24.192;2024-02-28T13:32:42;13.90;;;8.07;;
61960;SDS011;47923;42.506;24.192;2024-02-28T13:35:08;12.93;;;6.80;;
61960;SDS011;47923;42.506;24.192;2024-02-28T13:37:35;11.65;;;6.43;;
61960;SDS011;47923;42.506;24.192;2024-02-28T13:40:02;15.93;;;8.50;;
61960;SDS011;47923;42.506;24.192;2024-02-28T13:42:29;15.25;;;7.35;;
61960;SDS011;47923;42.506;24.192;2024-02-28T13:44:55;16.42;;;9.70;;
61960;SDS011;47923;42.506;24.192;2024-02-28T13:47:20;16.38;;;9.98;;
61960;SDS011;47923;42.506;24.192;2024-02-28T13:49:46;17.70;;;9.30;;
61960;SDS011;47923;42.506;24.192;2024-02-28T13:52:12;17.65;;;10.93;;
61960;SDS011;47923;42.506;24.192;2024-02-28T13:54:38;16.85;;;11.18;;
61960;SDS011;47923;42.506;24.192;2024-02-28T13:57:03;14.80;;;8.48;;
61960;SDS011;47923;42.506;24.192;2024-02-28T13:59:29;15.45;;;8.13;;
61960;SDS011;47923;42.506;24.192;2024-02-28T14:01:55;15.10;;;8.68;;
61960;SDS011;47923;42.506;24.192;2024-02-28T14:04:21;18.35;;;10.23;;
61960;SDS011;47923;42.506;24.192;2024-02-28T14:06:46;16.58;;;10.70;;